createdAt,value
2023-04-13T00:01:25.361Z,52.20
2023-04-13T00:04:04.009Z,27.20
2023-04-13T00:06:39.082Z,23.10
2023-04-13T00:09:11.267Z,26.60
2023-04-13T00:11:43.326Z,22.80
2023-04-13T00:14:15.680Z,21.30
2023-04-13T00:16:47.998Z,22.40
2023-04-13T00:19:20.281Z,45.80
2023-04-13T00:21:53.979Z,133.10
2023-04-13T00:24:26.153Z,103.20
2023-04-13T00:26:58.432Z,58.80
2023-04-13T00:29:30.724Z,43.80
2023-04-13T00:32:03.022Z,33.20
2023-04-13T00:34:36.683Z,25.80
2023-04-13T00:37:08.767Z,25.90
2023-04-13T00:39:40.860Z,28.60
2023-04-13T00:42:13.154Z,25.40
2023-04-13T00:44:47.361Z,23.30
2023-04-13T00:47:26.718Z,28.50
2023-04-13T00:50:01.694Z,26.40
2023-04-13T00:52:38.330Z,21.20
2023-04-13T00:55:13.352Z,16.80
2023-04-13T01:00:18.850Z,16.00
2023-04-13T01:02:52.806Z,15.70
2023-04-13T01:05:27.318Z,17.40
2023-04-13T01:08:09.887Z,17.50
2023-04-13T01:10:50.509Z,18.00
2023-04-13T01:13:27.270Z,19.70
2023-04-13T01:16:06.677Z,22.70
2023-04-13T01:18:45.076Z,26.70
2023-04-13T01:21:24.869Z,30.20
2023-04-13T01:24:17.083Z,30.80
2023-04-13T01:26:57.406Z,22.90
2023-04-13T01:29:31.930Z,21.60
2023-04-13T01:32:04.639Z,38.30
2023-04-13T01:34:38.399Z,36.30
2023-04-13T01:37:13.565Z,31.80
2023-04-13T01:42:26.854Z,21.70
2023-04-13T01:45:00.206Z,20.60
2023-04-13T01:47:34.545Z,20.80
2023-04-13T01:50:34.828Z,21.30
2023-04-13T01:53:20.666Z,25.50
2023-04-13T01:55:53.322Z,25.80
2023-04-13T01:58:33.713Z,24.10
2023-04-13T02:01:11.089Z,22.40
2023-04-13T02:03:43.714Z,21.20
2023-04-13T02:06:16.104Z,21.20
2023-04-13T02:08:50.501Z,23.80
2023-04-13T02:11:28.568Z,22.00
2023-04-13T02:14:00.901Z,22.20
2023-04-13T02:16:33.359Z,21.00
2023-04-13T02:19:05.728Z,22.40
2023-04-13T02:21:38.543Z,20.00
2023-04-13T02:24:11.855Z,24.80
2023-04-13T02:26:44.094Z,21.90
2023-04-13T02:29:16.409Z,22.30
2023-04-13T02:31:50.805Z,23.90
2023-04-13T02:34:23.059Z,23.90
2023-04-13T02:36:55.863Z,25.30
2023-04-13T02:39:28.711Z,25.50
2023-04-13T02:42:02.434Z,24.70
2023-04-13T02:44:35.267Z,22.90
2023-04-13T02:47:08.435Z,26.10
2023-04-13T02:49:41.443Z,22.70
2023-04-13T02:52:23.359Z,24.00
2023-04-13T02:55:16.877Z,21.30
2023-04-13T02:57:54.636Z,20.80
2023-04-13T03:00:28.760Z,20.50
2023-04-13T03:03:04.377Z,20.40
2023-04-13T03:05:40.600Z,20.50
2023-04-13T03:08:14.773Z,19.10
2023-04-13T03:10:57.539Z,19.40
2023-04-13T03:13:31.451Z,18.90
2023-04-13T03:16:04.867Z,21.50
2023-04-13T03:18:37.535Z,21.30
2023-04-13T03:21:10.602Z,21.00
2023-04-13T03:23:51.708Z,20.40
2023-04-13T03:26:25.293Z,23.60
2023-04-13T03:28:58.076Z,27.00
2023-04-13T03:31:31.547Z,33.20
2023-04-13T03:34:03.882Z,36.40
2023-04-13T03:36:36.456Z,35.90
2023-04-13T03:39:08.795Z,30.60
2023-04-13T03:41:42.493Z,25.10
2023-04-13T03:44:14.989Z,23.30
2023-04-13T03:46:47.267Z,25.20
2023-04-13T03:49:27.297Z,30.00
2023-04-13T03:52:00.111Z,27.70
2023-04-13T03:54:32.948Z,23.10
2023-04-13T03:57:05.338Z,21.50
2023-04-13T03:59:38.428Z,22.30
2023-04-13T04:02:11.119Z,25.60
2023-04-13T04:04:45.173Z,24.50
2023-04-13T04:07:23.208Z,27.20
2023-04-13T04:09:55.762Z,35.10
2023-04-13T04:12:28.781Z,38.50
2023-04-13T04:15:00.989Z,33.80
2023-04-13T04:17:34.875Z,31.40
2023-04-13T04:20:10.214Z,27.70
2023-04-13T04:22:44.940Z,32.70
2023-04-13T04:25:22.063Z,31.60
2023-04-13T04:27:57.876Z,27.50
2023-04-13T04:30:33.964Z,25.50
2023-04-13T04:33:07.414Z,30.30
2023-04-13T04:35:50.293Z,22.40
2023-04-13T04:38:24.493Z,22.80
2023-04-13T04:40:57.921Z,21.00
2023-04-13T04:43:32.297Z,26.00
2023-04-13T04:46:05.074Z,31.10
2023-04-13T04:48:39.249Z,33.90
2023-04-13T04:51:11.755Z,31.80
2023-04-13T04:53:44.274Z,46.00
2023-04-13T04:56:16.404Z,45.80
2023-04-13T04:58:52.818Z,38.40
2023-04-13T05:01:27.569Z,30.60
2023-04-13T05:04:08.387Z,25.60
2023-04-13T05:06:44.776Z,25.70
2023-04-13T05:09:20.732Z,26.20
2023-04-13T05:11:56.437Z,24.30
2023-04-13T05:14:28.581Z,27.20
2023-04-13T05:17:01.590Z,26.40
2023-04-13T05:19:38.612Z,27.50
2023-04-13T05:22:23.990Z,24.30
2023-04-13T05:25:01.746Z,25.10
2023-04-13T05:27:38.328Z,26.30
2023-04-13T05:30:12.570Z,30.30
2023-04-13T05:32:45.543Z,26.30
2023-04-13T05:35:17.813Z,27.00
2023-04-13T05:37:50.437Z,28.30
2023-04-13T05:40:29.093Z,26.10
2023-04-13T05:43:03.467Z,28.00
2023-04-13T05:45:38.196Z,25.70
2023-04-13T05:48:17.031Z,27.30
2023-04-13T05:50:50.210Z,28.60
2023-04-13T05:53:23.575Z,27.60
2023-04-13T05:55:59.343Z,24.80
2023-04-13T05:58:31.854Z,20.80
2023-04-13T06:01:24.436Z,27.10
2023-04-13T06:03:58.110Z,47.90
2023-04-13T06:06:30.564Z,35.00
2023-04-13T06:09:05.394Z,26.60
2023-04-13T06:11:37.977Z,28.70
2023-04-13T06:14:10.201Z,30.40
2023-04-13T06:16:42.286Z,35.40
2023-04-13T06:19:14.922Z,25.60
2023-04-13T06:21:47.111Z,23.30
2023-04-13T06:24:19.590Z,27.50
2023-04-13T06:26:52.411Z,26.10
2023-04-13T06:29:24.602Z,20.60
2023-04-13T06:32:04.557Z,20.80
2023-04-13T06:34:36.990Z,20.40
2023-04-13T06:37:09.812Z,28.10
2023-04-13T06:39:50.168Z,31.20
2023-04-13T06:42:22.451Z,31.20
2023-04-13T06:45:09.323Z,18.30
2023-04-13T06:47:44.912Z,19.50
2023-04-13T06:50:18.326Z,20.40
2023-04-13T06:52:51.638Z,17.00
2023-04-13T06:55:25.099Z,24.30
2023-04-13T06:57:57.486Z,16.80
2023-04-13T07:00:30.580Z,16.80
2023-04-13T07:03:04.918Z,15.40
2023-04-13T07:05:38.983Z,17.20
2023-04-13T07:08:16.073Z,24.00
2023-04-13T07:10:53.574Z,23.20
2023-04-13T07:13:32.592Z,15.10
2023-04-13T07:16:05.380Z,16.10
2023-04-13T07:18:39.966Z,14.20
2023-04-13T07:21:12.598Z,12.30
2023-04-13T07:24:04.115Z,14.80
2023-04-13T07:26:36.465Z,14.20
2023-04-13T07:29:13.580Z,15.30
2023-04-13T07:31:48.744Z,13.30
2023-04-13T07:34:22.048Z,15.70
2023-04-13T07:36:54.681Z,16.50
2023-04-13T07:39:27.996Z,17.60
2023-04-13T07:42:00.276Z,19.00
2023-04-13T07:44:39.610Z,17.70
2023-04-13T07:47:14.213Z,16.60
2023-04-13T07:49:47.570Z,16.20
2023-04-13T07:52:22.864Z,12.40
2023-04-13T07:54:56.452Z,16.80
2023-04-13T07:57:32.838Z,14.30
2023-04-13T08:02:46.208Z,14.50
2023-04-13T08:05:22.994Z,14.90
2023-04-13T08:07:55.947Z,13.10
2023-04-13T08:10:28.321Z,13.90
2023-04-13T08:13:01.282Z,15.80
2023-04-13T08:15:33.609Z,14.30
2023-04-13T08:18:06.763Z,14.30
2023-04-13T08:20:39.036Z,13.50
2023-04-13T08:23:12.537Z,12.40
2023-04-13T08:25:45.693Z,18.40
2023-04-13T08:28:20.657Z,12.30
2023-04-13T08:30:52.868Z,11.20
2023-04-13T08:33:25.116Z,11.00
2023-04-13T08:35:57.248Z,11.50
2023-04-13T08:38:29.655Z,11.20
2023-04-13T08:41:03.557Z,10.60
2023-04-13T08:43:37.718Z,10.40
2023-04-13T08:46:11.501Z,11.30
2023-04-13T08:49:05.364Z,10.50
2023-04-13T08:51:47.521Z,10.10
2023-04-13T08:54:19.708Z,10.30
2023-04-13T08:56:52.113Z,11.90
2023-04-13T08:59:29.374Z,14.10
2023-04-13T09:02:06.872Z,11.90
2023-04-13T09:04:46.160Z,10.70
2023-04-13T09:07:26.702Z,12.90
2023-04-13T09:10:01.669Z,11.60
2023-04-13T09:12:34.280Z,11.20
2023-04-13T09:15:09.238Z,14.80
2023-04-13T09:17:48.508Z,10.40
2023-04-13T09:20:23.246Z,10.50
2023-04-13T09:22:55.487Z,11.30
2023-04-13T09:25:29.425Z,10.60
2023-04-13T09:28:02.144Z,12.70
2023-04-13T09:30:35.546Z,12.50
2023-04-13T09:33:10.032Z,13.40
2023-04-13T09:35:42.426Z,13.60
2023-04-13T09:38:16.686Z,16.10
2023-04-13T09:40:54.556Z,15.30
2023-04-13T09:43:37.791Z,14.20
2023-04-13T09:46:15.084Z,15.80
2023-04-13T09:48:47.605Z,16.60
2023-04-13T09:51:20.926Z,16.10
2023-04-13T09:53:53.830Z,14.50
2023-04-13T09:56:27.325Z,16.30
2023-04-13T09:58:59.841Z,16.50
2023-04-13T10:01:32.382Z,14.80
2023-04-13T10:04:07.850Z,16.00
2023-04-13T10:06:43.463Z,17.80
2023-04-13T10:09:16.189Z,15.30
2023-04-13T10:11:51.540Z,17.10
2023-04-13T10:14:27.064Z,15.90
2023-04-13T10:17:25.084Z,16.20
2023-04-13T10:20:00.991Z,16.70
2023-04-13T10:22:33.222Z,18.70
2023-04-13T10:25:09.592Z,16.80
2023-04-13T10:27:44.880Z,18.20
2023-04-13T10:30:19.566Z,19.40
2023-04-13T10:35:22.689Z,17.70
2023-04-13T10:38:00.741Z,17.20
2023-04-13T10:40:42.712Z,17.40
2023-04-13T10:43:25.498Z,17.30
2023-04-13T10:46:09.296Z,16.80
2023-04-13T10:48:43.538Z,16.80
2023-04-13T10:51:15.818Z,18.30
2023-04-13T10:53:49.798Z,18.70
2023-04-13T10:56:22.000Z,17.80
2023-04-13T10:58:57.093Z,16.90
2023-04-13T11:01:30.833Z,18.30
2023-04-13T11:04:09.873Z,20.30
2023-04-13T11:06:44.731Z,15.30
2023-04-13T11:09:17.325Z,14.10
2023-04-13T11:11:54.137Z,14.10
2023-04-13T11:14:26.543Z,13.80
2023-04-13T11:16:58.948Z,14.90
2023-04-13T11:19:31.098Z,15.50
2023-04-13T11:22:03.223Z,16.10
2023-04-13T11:24:35.986Z,16.90
2023-04-13T11:27:17.145Z,16.90
2023-04-13T11:29:58.010Z,15.50
2023-04-13T11:32:30.181Z,15.80
2023-04-13T11:35:12.162Z,15.90
2023-04-13T11:37:47.091Z,17.10
2023-04-13T11:40:26.040Z,16.50
2023-04-13T11:43:01.211Z,15.80
2023-04-13T11:45:33.785Z,15.60
2023-04-13T11:48:07.926Z,16.00
2023-04-13T11:50:41.321Z,14.70
2023-04-13T11:53:14.560Z,17.00
2023-04-13T11:55:53.229Z,18.10
2023-04-13T11:58:27.415Z,15.60
2023-04-13T12:01:03.105Z,15.90
2023-04-13T12:03:57.098Z,15.20
2023-04-13T12:06:36.268Z,15.70
2023-04-13T12:09:13.425Z,15.70
2023-04-13T12:12:08.192Z,15.60
2023-04-13T12:15:04.786Z,15.40
2023-04-13T12:17:49.992Z,16.20
2023-04-13T12:20:35.090Z,16.50
2023-04-13T12:23:22.452Z,15.80
2023-04-13T12:26:00.578Z,17.50
2023-04-13T12:28:34.752Z,14.80
2023-04-13T12:31:09.975Z,14.80
2023-04-13T12:33:42.545Z,15.00
2023-04-13T12:36:14.600Z,27.50
2023-04-13T12:38:46.968Z,19.10
2023-04-13T12:41:19.103Z,18.10
2023-04-13T12:43:51.214Z,17.50
2023-04-13T12:46:25.202Z,14.00
2023-04-13T12:48:57.668Z,15.60
2023-04-13T12:51:31.572Z,14.90
2023-04-13T12:54:03.886Z,14.40
2023-04-13T12:56:36.104Z,14.20
2023-04-13T12:59:08.586Z,12.60
2023-04-13T13:01:40.866Z,15.70
2023-04-13T13:04:13.159Z,14.40
2023-04-13T13:06:45.873Z,12.80
2023-04-13T13:09:18.453Z,12.80
2023-04-13T13:11:50.713Z,13.50
2023-04-13T13:14:22.894Z,14.10
2023-04-13T13:16:54.993Z,13.80
2023-04-13T13:19:27.201Z,14.30
2023-04-13T13:21:59.908Z,16.60
2023-04-13T13:24:32.403Z,13.40
2023-04-13T13:29:39.867Z,15.10
2023-04-13T13:32:12.105Z,14.20
2023-04-13T13:34:44.234Z,14.80
2023-04-13T13:37:16.363Z,15.50
2023-04-13T13:39:48.670Z,13.70
2023-04-13T13:42:21.145Z,14.10
2023-04-13T13:44:53.399Z,16.40
2023-04-13T13:47:25.789Z,14.30
2023-04-13T13:49:58.043Z,15.00
2023-04-13T13:52:41.677Z,13.80
2023-04-13T13:55:20.553Z,14.10
2023-04-13T13:57:52.727Z,15.40
2023-04-13T14:00:26.013Z,15.70
2023-04-13T14:02:58.334Z,13.10
2023-04-13T14:05:30.564Z,13.80
2023-04-13T14:08:02.713Z,17.00
2023-04-13T14:10:35.999Z,21.60
2023-04-13T14:13:08.174Z,26.00
2023-04-13T14:15:40.429Z,17.30
2023-04-13T14:18:12.725Z,18.90
2023-04-13T14:20:44.965Z,21.50
2023-04-13T14:23:17.213Z,16.80
2023-04-13T14:25:49.636Z,18.00
2023-04-13T14:28:21.878Z,17.00
2023-04-13T14:30:54.066Z,15.90
2023-04-13T14:33:26.540Z,15.00
2023-04-13T14:35:58.756Z,16.40
2023-04-13T14:38:30.885Z,15.60
2023-04-13T14:41:03.065Z,17.00
2023-04-13T14:43:35.243Z,22.60
2023-04-13T14:46:07.676Z,21.20
2023-04-13T14:48:40.016Z,15.90
2023-04-13T14:51:18.553Z,15.10
2023-04-13T14:53:54.258Z,25.10
2023-04-13T14:56:27.801Z,16.70
2023-04-13T14:59:00.488Z,15.60
2023-04-13T15:01:33.117Z,14.00
2023-04-13T15:04:05.752Z,14.00
2023-04-13T15:06:40.246Z,13.20
2023-04-13T15:09:13.110Z,15.90
2023-04-13T15:11:45.752Z,15.60
2023-04-13T15:14:17.907Z,15.30
2023-04-13T15:16:50.012Z,17.60
2023-04-13T15:19:22.201Z,19.10
2023-04-13T15:21:54.352Z,13.90
2023-04-13T15:24:26.563Z,14.80
2023-04-13T15:26:58.870Z,14.80
2023-04-13T15:29:31.084Z,14.70
2023-04-13T15:32:03.305Z,15.50
2023-04-13T15:34:35.800Z,14.00
2023-04-13T15:37:07.982Z,15.30
2023-04-13T15:39:40.271Z,13.50
2023-04-13T15:42:13.085Z,14.50
2023-04-13T15:44:45.588Z,18.70
2023-04-13T15:47:17.820Z,24.00
2023-04-13T15:49:49.932Z,15.20
2023-04-13T15:52:22.279Z,14.80
2023-04-13T15:54:55.236Z,15.00
2023-04-13T15:57:27.401Z,16.00
2023-04-13T15:59:59.444Z,17.00
2023-04-13T16:02:32.393Z,16.10
2023-04-13T16:05:05.088Z,15.60
2023-04-13T16:07:37.282Z,17.80
2023-04-13T16:10:17.503Z,16.30
2023-04-13T16:12:50.169Z,17.80
2023-04-13T16:15:23.018Z,20.20
2023-04-13T16:17:57.111Z,16.00
2023-04-13T16:20:29.923Z,14.20
2023-04-13T16:23:04.994Z,24.50
2023-04-13T16:25:37.689Z,24.00
2023-04-13T16:28:10.854Z,19.30
2023-04-13T16:30:42.970Z,39.70
2023-04-13T16:33:15.164Z,22.80
2023-04-13T16:35:47.421Z,56.30
2023-04-13T16:38:19.653Z,30.10
2023-04-13T16:40:51.842Z,35.10
2023-04-13T16:43:24.026Z,22.50
2023-04-13T16:45:56.096Z,24.70
2023-04-13T16:48:29.484Z,28.60
2023-04-13T16:51:02.764Z,30.20
2023-04-13T16:53:34.959Z,32.80
2023-04-13T16:56:09.089Z,28.00
2023-04-13T16:58:41.388Z,23.80
2023-04-13T17:01:13.663Z,25.80
2023-04-13T17:03:45.883Z,22.70
2023-04-13T17:06:18.107Z,20.30
2023-04-13T17:08:50.602Z,15.00
2023-04-13T17:11:23.651Z,13.70
2023-04-13T17:13:56.108Z,15.50
2023-04-13T17:16:29.636Z,17.40
2023-04-13T17:19:02.309Z,18.20
2023-04-13T17:21:34.920Z,22.20
2023-04-13T17:24:09.204Z,25.90
2023-04-13T17:26:41.644Z,27.50
2023-04-13T17:29:13.873Z,25.20
2023-04-13T17:31:46.162Z,26.10
2023-04-13T17:34:18.522Z,24.20
2023-04-13T17:36:51.877Z,27.00
2023-04-13T17:39:24.591Z,28.10
2023-04-13T17:41:57.114Z,26.10
2023-04-13T17:44:29.226Z,20.80
2023-04-13T17:47:01.455Z,25.70
2023-04-13T17:49:34.428Z,64.90
2023-04-13T17:52:06.606Z,45.10
2023-04-13T17:54:40.629Z,30.00
2023-04-13T17:57:13.360Z,24.30
2023-04-13T17:59:46.820Z,23.20
2023-04-13T18:02:20.340Z,30.30
2023-04-13T18:04:52.770Z,26.50
2023-04-13T18:07:26.424Z,32.60
2023-04-13T18:09:58.581Z,44.10
2023-04-13T18:12:30.745Z,56.50
2023-04-13T18:15:03.241Z,61.80
2023-04-13T18:17:36.792Z,57.00
2023-04-13T18:20:11.244Z,65.90
2023-04-13T18:22:43.456Z,66.10
2023-04-13T18:25:15.829Z,69.60
2023-04-13T18:27:48.153Z,74.80
2023-04-13T18:30:20.426Z,75.60
2023-04-13T18:32:52.793Z,87.20
2023-04-13T18:35:24.894Z,89.30
2023-04-13T18:37:57.660Z,77.50
2023-04-13T18:40:30.219Z,65.60
2023-04-13T18:43:02.756Z,62.10
2023-04-13T18:45:35.006Z,61.30
2023-04-13T18:48:09.929Z,64.10
2023-04-13T18:50:42.244Z,61.40
2023-04-13T18:53:14.376Z,67.20
2023-04-13T18:55:51.268Z,85.50
2023-04-13T18:58:23.686Z,90.40
2023-04-13T19:00:56.273Z,114.40
2023-04-13T19:03:28.782Z,126.90
2023-04-13T19:06:01.277Z,131.40
2023-04-13T19:08:33.599Z,140.80
2023-04-13T19:11:06.057Z,150.30
2023-04-13T19:13:38.582Z,153.00
2023-04-13T19:16:11.334Z,140.80
2023-04-13T19:18:43.617Z,130.20
2023-04-13T19:21:18.518Z,124.40
2023-04-13T19:23:50.815Z,151.90
2023-04-13T19:26:23.128Z,160.50
2023-04-13T19:28:57.604Z,123.80
2023-04-13T19:31:29.972Z,121.40
2023-04-13T19:34:02.666Z,143.10
2023-04-13T19:36:37.312Z,467.10
2023-04-13T19:39:10.258Z,236.40
2023-04-13T19:41:42.898Z,305.60
2023-04-13T19:44:16.992Z,234.50
2023-04-13T19:46:49.752Z,119.60
2023-04-13T19:49:22.190Z,110.40
2023-04-13T19:51:54.643Z,68.60
2023-04-13T19:54:27.314Z,60.00
2023-04-13T19:56:59.869Z,63.40
2023-04-13T19:59:32.461Z,44.20
2023-04-13T20:02:05.225Z,35.80
2023-04-13T20:04:38.902Z,57.90
2023-04-13T20:07:11.526Z,35.10
2023-04-13T20:09:43.872Z,24.40
2023-04-13T20:12:16.759Z,20.60
2023-04-13T20:14:49.607Z,16.50
2023-04-13T20:17:22.030Z,16.90
2023-04-13T20:19:55.507Z,20.60
2023-04-13T20:22:28.341Z,27.40
2023-04-13T20:25:00.833Z,19.30
2023-04-13T20:27:34.380Z,17.30
2023-04-13T20:30:09.487Z,15.90
2023-04-13T20:32:42.023Z,16.50
2023-04-13T20:35:15.193Z,15.10
2023-04-13T20:37:47.663Z,17.30
2023-04-13T20:40:27.024Z,15.30
2023-04-13T20:43:00.114Z,15.30
2023-04-13T20:45:32.839Z,14.20
2023-04-13T20:50:41.804Z,14.20
2023-04-13T20:53:15.118Z,14.10
2023-04-13T20:55:48.268Z,13.40
2023-04-13T20:58:21.231Z,13.80
2023-04-13T21:00:53.819Z,14.10
2023-04-13T21:03:32.011Z,13.90
2023-04-13T21:06:04.784Z,19.90
2023-04-13T21:08:37.238Z,17.50
2023-04-13T21:11:09.661Z,15.90
2023-04-13T21:13:42.115Z,14.60
2023-04-13T21:16:15.152Z,15.40
2023-04-13T21:18:47.866Z,15.10
2023-04-13T21:21:23.372Z,14.70
2023-04-13T21:23:56.344Z,14.00
2023-04-13T21:26:29.080Z,14.40
2023-04-13T21:29:01.611Z,14.30
2023-04-13T21:31:34.150Z,13.90
2023-04-13T21:34:06.616Z,13.90
2023-04-13T21:39:14.588Z,13.70
2023-04-13T21:41:47.190Z,14.70
2023-04-13T21:44:29.249Z,15.00
2023-04-13T21:47:01.943Z,20.30
2023-04-13T21:49:34.297Z,17.70
2023-04-13T21:52:06.606Z,16.20
2023-04-13T21:54:38.986Z,17.40
2023-04-13T21:57:11.371Z,14.20
2023-04-13T21:59:44.290Z,15.10
2023-04-13T22:02:16.833Z,12.40
2023-04-13T22:04:49.256Z,16.30
2023-04-13T22:07:28.602Z,16.60
2023-04-13T22:10:12.773Z,11.10
2023-04-13T22:12:45.074Z,12.70
2023-04-13T22:15:17.501Z,14.30
2023-04-13T22:17:49.856Z,15.00
2023-04-13T22:20:22.197Z,14.20
2023-04-13T22:22:54.472Z,12.60
2023-04-13T22:25:28.105Z,12.40
2023-04-13T22:28:00.421Z,12.20
2023-04-13T22:30:32.944Z,11.40
2023-04-13T22:33:05.385Z,11.90
2023-04-13T22:35:38.451Z,11.50
2023-04-13T22:38:11.299Z,10.80
2023-04-13T22:40:43.631Z,8.80
2023-04-13T22:43:16.353Z,9.70
2023-04-13T22:45:48.723Z,9.90
2023-04-13T22:48:21.408Z,8.80
2023-04-13T22:50:53.945Z,8.40
2023-04-13T22:53:27.251Z,8.90
2023-04-13T22:56:00.914Z,8.70
2023-04-13T22:58:33.433Z,8.10
2023-04-13T23:01:06.124Z,7.90
2023-04-13T23:03:38.606Z,8.80
2023-04-13T23:06:11.308Z,8.50
2023-04-13T23:08:43.592Z,7.80
2023-04-13T23:11:16.080Z,7.60
2023-04-13T23:13:48.460Z,8.10
2023-04-13T23:16:20.832Z,7.50
2023-04-13T23:18:53.299Z,7.40
2023-04-13T23:21:26.559Z,7.60
2023-04-13T23:23:58.957Z,8.00
2023-04-13T23:26:31.313Z,7.70
2023-04-13T23:29:03.817Z,7.70
2023-04-13T23:31:36.416Z,9.50
2023-04-13T23:34:08.756Z,8.80
2023-04-13T23:36:41.349Z,9.90
2023-04-13T23:39:13.679Z,8.90
2023-04-13T23:41:46.081Z,9.40
2023-04-13T23:44:18.411Z,8.10
2023-04-13T23:46:50.870Z,8.20
2023-04-13T23:49:23.867Z,7.20
2023-04-13T23:51:56.281Z,8.00
2023-04-13T23:54:28.674Z,11.00
2023-04-13T23:57:01.735Z,10.60
2023-04-13T23:59:34.167Z,10.10
